sensor_id;sensor_type;location;lat;lon;timestamp;temperature;humidity
47546;DHT22;50104;52.002;4.688;2023-08-06T00:01:27;17.30;82.90
47546;DHT22;50104;52.002;4.688;2023-08-06T00:06:28;17.30;82.90
47546;DHT22;50104;52.002;4.688;2023-08-06T00:11:29;17.30;83.00
47546;DHT22;50104;52.002;4.688;2023-08-06T00:16:30;17.30;83.00
47546;DHT22;50104;52.002;4.688;2023-08-06T00:21:30;17.30;83.00
47546;DHT22;50104;52.002;4.688;2023-08-06T00:26:31;17.30;83.00
47546;DHT22;50104;52.002;4.688;2023-08-06T00:31:32;17.20;83.10
47546;DHT22;50104;52.002;4.688;2023-08-06T00:36:33;17.20;83.10
47546;DHT22;50104;52.002;4.688;2023-08-06T00:41:33;17.20;83.20
47546;DHT22;50104;52.002;4.688;2023-08-06T00:46:34;17.20;83.30
47546;DHT22;50104;52.002;4.688;2023-08-06T00:51:35;17.20;83.30
47546;DHT22;50104;52.002;4.688;2023-08-06T00:56:36;17.20;83.20
47546;DHT22;50104;52.002;4.688;2023-08-06T01:01:38;17.20;83.20
47546;DHT22;50104;52.002;4.688;2023-08-06T01:06:48;17.20;83.10
47546;DHT22;50104;52.002;4.688;2023-08-06T01:12:18;17.20;83.10
47546;DHT22;50104;52.002;4.688;2023-08-06T01:17:20;17.20;83.00
47546;DHT22;50104;52.002;4.688;2023-08-06T01:22:21;17.20;83.00
47546;DHT22;50104;52.002;4.688;2023-08-06T01:27:33;17.20;83.00
47546;DHT22;50104;52.002;4.688;2023-08-06T01:32:43;17.20;83.10
47546;DHT22;50104;52.002;4.688;2023-08-06T01:37:46;17.20;83.20
47546;DHT22;50104;52.002;4.688;2023-08-06T01:42:48;17.20;83.30
47546;DHT22;50104;52.002;4.688;2023-08-06T01:47:48;17.20;83.20
47546;DHT22;50104;52.002;4.688;2023-08-06T01:52:49;17.20;83.20
47546;DHT22;50104;52.002;4.688;2023-08-06T01:57:50;17.20;83.30
47546;DHT22;50104;52.002;4.688;2023-08-06T02:02:51;17.20;83.30
47546;DHT22;50104;52.002;4.688;2023-08-06T02:07:52;17.10;83.40
47546;DHT22;50104;52.002;4.688;2023-08-06T02:12:53;17.10;83.30
47546;DHT22;50104;52.002;4.688;2023-08-06T02:17:54;17.10;83.40
47546;DHT22;50104;52.002;4.688;2023-08-06T02:22:55;17.10;83.30
47546;DHT22;50104;52.002;4.688;2023-08-06T02:27:56;17.10;83.40
47546;DHT22;50104;52.002;4.688;2023-08-06T02:32:58;17.10;83.20
47546;DHT22;50104;52.002;4.688;2023-08-06T02:37:58;17.10;83.20
47546;DHT22;50104;52.002;4.688;2023-08-06T02:42:59;17.10;83.10
47546;DHT22;50104;52.002;4.688;2023-08-06T02:48:00;17.20;83.20
47546;DHT22;50104;52.002;4.688;2023-08-06T02:53:02;17.20;83.20
47546;DHT22;50104;52.002;4.688;2023-08-06T02:58:03;17.20;83.20
47546;DHT22;50104;52.002;4.688;2023-08-06T03:03:05;17.20;83.10
47546;DHT22;50104;52.002;4.688;2023-08-06T03:08:05;17.20;83.30
47546;DHT22;50104;52.002;4.688;2023-08-06T03:13:06;17.20;83.40
47546;DHT22;50104;52.002;4.688;2023-08-06T03:18:07;17.20;83.40
47546;DHT22;50104;52.002;4.688;2023-08-06T03:23:08;17.20;83.60
47546;DHT22;50104;52.002;4.688;2023-08-06T03:28:09;17.20;83.70
47546;DHT22;50104;52.002;4.688;2023-08-06T03:33:09;17.20;83.50
47546;DHT22;50104;52.002;4.688;2023-08-06T03:38:10;17.20;83.80
47546;DHT22;50104;52.002;4.688;2023-08-06T03:43:12;17.20;83.80
47546;DHT22;50104;52.002;4.688;2023-08-06T03:48:13;17.20;83.70
47546;DHT22;50104;52.002;4.688;2023-08-06T03:53:13;17.20;83.70
47546;DHT22;50104;52.002;4.688;2023-08-06T03:58:14;17.20;83.90
47546;DHT22;50104;52.002;4.688;2023-08-06T04:03:15;17.20;84.00
47546;DHT22;50104;52.002;4.688;2023-08-06T04:08:17;17.20;83.90
47546;DHT22;50104;52.002;4.688;2023-08-06T04:13:18;17.20;84.00
47546;DHT22;50104;52.002;4.688;2023-08-06T04:18:22;17.10;84.40
47546;DHT22;50104;52.002;4.688;2023-08-06T04:23:59;17.10;84.40
47546;DHT22;50104;52.002;4.688;2023-08-06T04:29:00;17.10;84.50
47546;DHT22;50104;52.002;4.688;2023-08-06T04:34:01;17.00;84.10
47546;DHT22;50104;52.002;4.688;2023-08-06T04:39:02;17.00;83.80
47546;DHT22;50104;52.002;4.688;2023-08-06T04:44:03;16.90;83.70
47546;DHT22;50104;52.002;4.688;2023-08-06T04:49:04;16.80;83.80
47546;DHT22;50104;52.002;4.688;2023-08-06T04:54:05;16.70;83.80
47546;DHT22;50104;52.002;4.688;2023-08-06T04:59:06;16.70;84.00
47546;DHT22;50104;52.002;4.688;2023-08-06T05:04:07;16.60;84.10
47546;DHT22;50104;52.002;4.688;2023-08-06T05:09:07;16.60;84.40
47546;DHT22;50104;52.002;4.688;2023-08-06T05:14:09;16.50;84.50
47546;DHT22;50104;52.002;4.688;2023-08-06T05:19:10;16.50;84.80
47546;DHT22;50104;52.002;4.688;2023-08-06T05:24:14;16.40;84.90
47546;DHT22;50104;52.002;4.688;2023-08-06T05:29:16;16.40;84.90
47546;DHT22;50104;52.002;4.688;2023-08-06T05:34:17;16.40;85.00
47546;DHT22;50104;52.002;4.688;2023-08-06T05:39:18;16.30;85.00
47546;DHT22;50104;52.002;4.688;2023-08-06T05:44:19;16.30;85.10
47546;DHT22;50104;52.002;4.688;2023-08-06T05:49:20;16.30;85.30
47546;DHT22;50104;52.002;4.688;2023-08-06T05:54:21;16.30;85.40
47546;DHT22;50104;52.002;4.688;2023-08-06T05:59:22;16.30;85.60
47546;DHT22;50104;52.002;4.688;2023-08-06T06:04:24;16.30;85.70
47546;DHT22;50104;52.002;4.688;2023-08-06T06:09:25;16.40;85.70
47546;DHT22;50104;52.002;4.688;2023-08-06T06:14:26;16.40;85.80
47546;DHT22;50104;52.002;4.688;2023-08-06T06:19:27;16.40;85.80
47546;DHT22;50104;52.002;4.688;2023-08-06T06:24:27;16.40;85.80
47546;DHT22;50104;52.002;4.688;2023-08-06T06:29:28;16.50;85.70
47546;DHT22;50104;52.002;4.688;2023-08-06T06:34:29;16.50;85.70
47546;DHT22;50104;52.002;4.688;2023-08-06T06:39:30;16.50;85.60
47546;DHT22;50104;52.002;4.688;2023-08-06T06:44:31;16.50;85.40
47546;DHT22;50104;52.002;4.688;2023-08-06T06:49:31;16.50;85.50
47546;DHT22;50104;52.002;4.688;2023-08-06T06:54:34;16.60;85.70
47546;DHT22;50104;52.002;4.688;2023-08-06T06:59:35;16.60;85.80
47546;DHT22;50104;52.002;4.688;2023-08-06T07:04:35;16.60;85.90
47546;DHT22;50104;52.002;4.688;2023-08-06T07:09:37;16.60;85.90
47546;DHT22;50104;52.002;4.688;2023-08-06T07:14:38;16.60;86.00
47546;DHT22;50104;52.002;4.688;2023-08-06T07:19:39;16.60;86.10
47546;DHT22;50104;52.002;4.688;2023-08-06T07:24:40;16.60;86.00
47546;DHT22;50104;52.002;4.688;2023-08-06T07:29:41;16.70;86.10
47546;DHT22;50104;52.002;4.688;2023-08-06T07:34:42;16.70;86.30
47546;DHT22;50104;52.002;4.688;2023-08-06T07:39:43;16.70;86.40
47546;DHT22;50104;52.002;4.688;2023-08-06T07:44:44;16.70;86.40
47546;DHT22;50104;52.002;4.688;2023-08-06T07:49:46;16.70;86.30
47546;DHT22;50104;52.002;4.688;2023-08-06T07:54:48;16.80;86.40
47546;DHT22;50104;52.002;4.688;2023-08-06T07:59:49;16.80;86.10
47546;DHT22;50104;52.002;4.688;2023-08-06T08:04:50;16.80;86.10
47546;DHT22;50104;52.002;4.688;2023-08-06T08:09:50;16.80;86.00
47546;DHT22;50104;52.002;4.688;2023-08-06T08:14:51;16.90;85.90
47546;DHT22;50104;52.002;4.688;2023-08-06T08:19:52;16.90;85.90
47546;DHT22;50104;52.002;4.688;2023-08-06T08:24:53;16.90;85.70
47546;DHT22;50104;52.002;4.688;2023-08-06T08:29:54;17.00;85.60
47546;DHT22;50104;52.002;4.688;2023-08-06T08:34:56;17.00;85.60
47546;DHT22;50104;52.002;4.688;2023-08-06T08:39:57;17.00;85.30
47546;DHT22;50104;52.002;4.688;2023-08-06T08:44:58;17.00;85.10
47546;DHT22;50104;52.002;4.688;2023-08-06T08:49:59;17.10;85.10
47546;DHT22;50104;52.002;4.688;2023-08-06T08:55:01;17.10;85.10
47546;DHT22;50104;52.002;4.688;2023-08-06T09:00:03;17.20;85.00
47546;DHT22;50104;52.002;4.688;2023-08-06T09:05:07;17.20;85.00
47546;DHT22;50104;52.002;4.688;2023-08-06T09:10:10;17.30;85.00
47546;DHT22;50104;52.002;4.688;2023-08-06T09:15:14;17.30;85.00
47546;DHT22;50104;52.002;4.688;2023-08-06T09:20:15;17.40;84.90
47546;DHT22;50104;52.002;4.688;2023-08-06T09:25:25;17.40;84.60
47546;DHT22;50104;52.002;4.688;2023-08-06T09:30:32;17.50;84.50
47546;DHT22;50104;52.002;4.688;2023-08-06T09:35:34;17.50;84.30
47546;DHT22;50104;52.002;4.688;2023-08-06T09:40:35;17.50;84.30
47546;DHT22;50104;52.002;4.688;2023-08-06T09:45:37;17.60;84.20
47546;DHT22;50104;52.002;4.688;2023-08-06T09:50:39;17.60;84.40
47546;DHT22;50104;52.002;4.688;2023-08-06T09:55:40;17.70;84.50
47546;DHT22;50104;52.002;4.688;2023-08-06T10:00:43;17.80;84.80
47546;DHT22;50104;52.002;4.688;2023-08-06T10:05:44;17.90;85.00
47546;DHT22;50104;52.002;4.688;2023-08-06T10:10:46;18.10;84.90
47546;DHT22;50104;52.002;4.688;2023-08-06T10:15:49;18.20;84.90
47546;DHT22;50104;52.002;4.688;2023-08-06T10:20:50;18.40;84.40
47546;DHT22;50104;52.002;4.688;2023-08-06T10:25:53;18.50;83.90
47546;DHT22;50104;52.002;4.688;2023-08-06T10:30:56;18.60;83.40
47546;DHT22;50104;52.002;4.688;2023-08-06T10:36:01;18.70;83.00
47546;DHT22;50104;52.002;4.688;2023-08-06T10:41:05;18.80;82.90
47546;DHT22;50104;52.002;4.688;2023-08-06T10:46:22;19.00;82.70
47546;DHT22;50104;52.002;4.688;2023-08-06T10:51:24;19.10;82.80
47546;DHT22;50104;52.002;4.688;2023-08-06T10:56:25;19.20;82.60
47546;DHT22;50104;52.002;4.688;2023-08-06T11:01:29;19.30;82.00
47546;DHT22;50104;52.002;4.688;2023-08-06T11:06:32;19.50;81.50
47546;DHT22;50104;52.002;4.688;2023-08-06T11:11:34;19.60;81.20
47546;DHT22;50104;52.002;4.688;2023-08-06T11:16:35;19.70;81.20
47546;DHT22;50104;52.002;4.688;2023-08-06T11:21:37;19.90;80.90
47546;DHT22;50104;52.002;4.688;2023-08-06T11:26:39;20.00;80.40
47546;DHT22;50104;52.002;4.688;2023-08-06T11:31:40;20.10;80.00
47546;DHT22;50104;52.002;4.688;2023-08-06T11:36:41;20.30;79.30
47546;DHT22;50104;52.002;4.688;2023-08-06T11:41:42;20.40;79.60
47546;DHT22;50104;52.002;4.688;2023-08-06T11:46:54;20.60;80.10
47546;DHT22;50104;52.002;4.688;2023-08-06T11:51:56;20.80;79.50
47546;DHT22;50104;52.002;4.688;2023-08-06T11:56:57;20.90;78.30
47546;DHT22;50104;52.002;4.688;2023-08-06T12:02:03;21.00;78.40
47546;DHT22;50104;52.002;4.688;2023-08-06T12:07:08;21.20;78.80
47546;DHT22;50104;52.002;4.688;2023-08-06T12:12:09;21.40;79.00
47546;DHT22;50104;52.002;4.688;2023-08-06T12:17:10;21.70;79.10
47546;DHT22;50104;52.002;4.688;2023-08-06T12:22:10;21.90;77.90
47546;DHT22;50104;52.002;4.688;2023-08-06T12:27:11;22.10;76.90
47546;DHT22;50104;52.002;4.688;2023-08-06T12:32:12;22.30;76.70
47546;DHT22;50104;52.002;4.688;2023-08-06T12:37:13;22.50;76.60
47546;DHT22;50104;52.002;4.688;2023-08-06T12:42:14;22.60;75.20
47546;DHT22;50104;52.002;4.688;2023-08-06T12:47:16;22.70;74.30
47546;DHT22;50104;52.002;4.688;2023-08-06T12:52:17;22.70;73.90
47546;DHT22;50104;52.002;4.688;2023-08-06T12:57:20;22.70;73.40
47546;DHT22;50104;52.002;4.688;2023-08-06T13:02:21;22.70;73.60
47546;DHT22;50104;52.002;4.688;2023-08-06T13:07:21;22.60;74.00
47546;DHT22;50104;52.002;4.688;2023-08-06T13:12:22;22.60;74.20
47546;DHT22;50104;52.002;4.688;2023-08-06T13:17:23;22.50;73.70
47546;DHT22;50104;52.002;4.688;2023-08-06T13:22:24;22.50;73.70
47546;DHT22;50104;52.002;4.688;2023-08-06T13:27:25;22.40;74.20
47546;DHT22;50104;52.002;4.688;2023-08-06T13:32:26;22.40;74.50
47546;DHT22;50104;52.002;4.688;2023-08-06T13:37:27;22.30;74.20
47546;DHT22;50104;52.002;4.688;2023-08-06T13:42:28;22.20;73.00
47546;DHT22;50104;52.002;4.688;2023-08-06T13:47:30;22.10;72.90
47546;DHT22;50104;52.002;4.688;2023-08-06T13:52:31;21.90;73.10
47546;DHT22;50104;52.002;4.688;2023-08-06T13:57:33;21.70;73.10
47546;DHT22;50104;52.002;4.688;2023-08-06T14:02:35;21.60;74.80
47546;DHT22;50104;52.002;4.688;2023-08-06T14:07:35;21.40;75.60
47546;DHT22;50104;52.002;4.688;2023-08-06T14:12:36;21.40;76.10
47546;DHT22;50104;52.002;4.688;2023-08-06T14:17:37;21.20;76.00
47546;DHT22;50104;52.002;4.688;2023-08-06T14:22:38;21.00;75.80
47546;DHT22;50104;52.002;4.688;2023-08-06T14:27:39;20.80;76.20
47546;DHT22;50104;52.002;4.688;2023-08-06T14:32:40;20.60;76.90
47546;DHT22;50104;52.002;4.688;2023-08-06T14:37:41;20.50;77.50
47546;DHT22;50104;52.002;4.688;2023-08-06T14:42:42;20.30;78.10
47546;DHT22;50104;52.002;4.688;2023-08-06T14:47:43;20.20;78.40
47546;DHT22;50104;52.002;4.688;2023-08-06T14:52:44;20.00;78.50
47546;DHT22;50104;52.002;4.688;2023-08-06T14:57:46;19.90;78.30
47546;DHT22;50104;52.002;4.688;2023-08-06T15:02:46;19.70;78.30
47546;DHT22;50104;52.002;4.688;2023-08-06T15:07:47;19.60;78.60
47546;DHT22;50104;52.002;4.688;2023-08-06T15:12:50;19.40;78.70
47546;DHT22;50104;52.002;4.688;2023-08-06T15:17:52;19.30;79.20
47546;DHT22;50104;52.002;4.688;2023-08-06T15:22:53;19.20;79.60
47546;DHT22;50104;52.002;4.688;2023-08-06T15:27:57;19.00;79.10
47546;DHT22;50104;52.002;4.688;2023-08-06T15:32:58;18.90;79.20
47546;DHT22;50104;52.002;4.688;2023-08-06T15:38:00;18.80;79.70
47546;DHT22;50104;52.002;4.688;2023-08-06T15:43:02;18.70;79.80
47546;DHT22;50104;52.002;4.688;2023-08-06T15:48:04;18.60;80.00
47546;DHT22;50104;52.002;4.688;2023-08-06T15:53:06;18.50;80.40
47546;DHT22;50104;52.002;4.688;2023-08-06T15:58:07;18.30;81.00
47546;DHT22;50104;52.002;4.688;2023-08-06T16:03:08;18.30;81.40
47546;DHT22;50104;52.002;4.688;2023-08-06T16:08:08;18.20;81.50
47546;DHT22;50104;52.002;4.688;2023-08-06T16:13:09;18.10;81.40
47546;DHT22;50104;52.002;4.688;2023-08-06T16:18:10;18.10;81.70
47546;DHT22;50104;52.002;4.688;2023-08-06T16:23:11;18.10;81.60
47546;DHT22;50104;52.002;4.688;2023-08-06T16:28:12;18.10;81.90
47546;DHT22;50104;52.002;4.688;2023-08-06T16:33:14;18.10;81.90
47546;DHT22;50104;52.002;4.688;2023-08-06T16:38:15;18.20;81.60
47546;DHT22;50104;52.002;4.688;2023-08-06T16:43:17;18.20;81.70
47546;DHT22;50104;52.002;4.688;2023-08-06T16:48:18;18.20;81.50
47546;DHT22;50104;52.002;4.688;2023-08-06T16:53:19;18.30;81.40
47546;DHT22;50104;52.002;4.688;2023-08-06T16:58:21;18.20;80.70
47546;DHT22;50104;52.002;4.688;2023-08-06T17:03:22;18.20;80.50
47546;DHT22;50104;52.002;4.688;2023-08-06T17:08:22;18.10;80.50
47546;DHT22;50104;52.002;4.688;2023-08-06T17:13:24;18.00;80.10
47546;DHT22;50104;52.002;4.688;2023-08-06T17:18:28;17.90;80.10
47546;DHT22;50104;52.002;4.688;2023-08-06T17:23:29;17.90;80.10
47546;DHT22;50104;52.002;4.688;2023-08-06T17:28:30;17.80;80.20
47546;DHT22;50104;52.002;4.688;2023-08-06T17:33:31;17.80;80.40
47546;DHT22;50104;52.002;4.688;2023-08-06T17:38:32;17.80;80.60
47546;DHT22;50104;52.002;4.688;2023-08-06T17:43:34;17.70;80.60
47546;DHT22;50104;52.002;4.688;2023-08-06T17:48:35;17.60;80.50
47546;DHT22;50104;52.002;4.688;2023-08-06T17:53:36;17.60;80.40
47546;DHT22;50104;52.002;4.688;2023-08-06T17:58:37;17.50;80.40
47546;DHT22;50104;52.002;4.688;2023-08-06T18:03:37;17.40;80.40
47546;DHT22;50104;52.002;4.688;2023-08-06T18:08:38;17.30;80.80
47546;DHT22;50104;52.002;4.688;2023-08-06T18:13:39;17.30;80.90
47546;DHT22;50104;52.002;4.688;2023-08-06T18:18:40;17.20;81.10
47546;DHT22;50104;52.002;4.688;2023-08-06T18:23:42;17.20;81.10
47546;DHT22;50104;52.002;4.688;2023-08-06T18:28:43;17.10;81.70
47546;DHT22;50104;52.002;4.688;2023-08-06T18:33:45;17.00;81.90
47546;DHT22;50104;52.002;4.688;2023-08-06T18:38:46;17.00;82.10
47546;DHT22;50104;52.002;4.688;2023-08-06T18:43:51;16.90;82.30
47546;DHT22;50104;52.002;4.688;2023-08-06T18:48:52;16.80;82.70
47546;DHT22;50104;52.002;4.688;2023-08-06T18:53:54;16.70;82.80
47546;DHT22;50104;52.002;4.688;2023-08-06T18:58:57;16.70;83.10
47546;DHT22;50104;52.002;4.688;2023-08-06T19:03:57;16.60;83.10
47546;DHT22;50104;52.002;4.688;2023-08-06T19:08:58;16.60;83.10
47546;DHT22;50104;52.002;4.688;2023-08-06T19:14:00;16.50;83.10
47546;DHT22;50104;52.002;4.688;2023-08-06T19:19:02;16.40;83.10
47546;DHT22;50104;52.002;4.688;2023-08-06T19:24:03;16.40;83.10
47546;DHT22;50104;52.002;4.688;2023-08-06T19:29:04;16.30;83.00
47546;DHT22;50104;52.002;4.688;2023-08-06T19:34:07;16.30;83.00
47546;DHT22;50104;52.002;4.688;2023-08-06T19:39:07;16.30;82.90
47546;DHT22;50104;52.002;4.688;2023-08-06T19:44:10;16.20;83.20
47546;DHT22;50104;52.002;4.688;2023-08-06T19:49:10;16.20;83.40
47546;DHT22;50104;52.002;4.688;2023-08-06T19:54:11;16.20;83.40
47546;DHT22;50104;52.002;4.688;2023-08-06T19:59:12;16.10;83.50
47546;DHT22;50104;52.002;4.688;2023-08-06T20:04:13;16.10;83.50
47546;DHT22;50104;52.002;4.688;2023-08-06T20:09:14;16.10;83.40
47546;DHT22;50104;52.002;4.688;2023-08-06T20:14:15;16.00;83.60
47546;DHT22;50104;52.002;4.688;2023-08-06T20:19:16;16.00;84.00
47546;DHT22;50104;52.002;4.688;2023-08-06T20:24:17;16.00;84.40
47546;DHT22;50104;52.002;4.688;2023-08-06T20:29:18;15.90;84.70
47546;DHT22;50104;52.002;4.688;2023-08-06T20:34:19;15.90;84.90
47546;DHT22;50104;52.002;4.688;2023-08-06T20:39:20;15.80;85.10
47546;DHT22;50104;52.002;4.688;2023-08-06T20:44:21;15.80;84.90
47546;DHT22;50104;52.002;4.688;2023-08-06T20:49:21;15.80;84.90
47546;DHT22;50104;52.002;4.688;2023-08-06T20:54:22;15.80;84.80
47546;DHT22;50104;52.002;4.688;2023-08-06T20:59:23;15.70;84.90
47546;DHT22;50104;52.002;4.688;2023-08-06T21:04:24;15.70;85.00
47546;DHT22;50104;52.002;4.688;2023-08-06T21:09:27;15.70;85.20
47546;DHT22;50104;52.002;4.688;2023-08-06T21:14:27;15.60;85.20
47546;DHT22;50104;52.002;4.688;2023-08-06T21:19:28;15.60;84.90
47546;DHT22;50104;52.002;4.688;2023-08-06T21:24:29;15.60;85.00
47546;DHT22;50104;52.002;4.688;2023-08-06T21:29:30;15.60;84.90
47546;DHT22;50104;52.002;4.688;2023-08-06T21:34:31;15.60;85.30
47546;DHT22;50104;52.002;4.688;2023-08-06T21:39:32;15.60;85.30
47546;DHT22;50104;52.002;4.688;2023-08-06T21:44:35;15.60;85.30
47546;DHT22;50104;52.002;4.688;2023-08-06T21:49:37;15.60;85.20
47546;DHT22;50104;52.002;4.688;2023-08-06T21:54:39;15.60;85.60
47546;DHT22;50104;52.002;4.688;2023-08-06T21:59:39;15.60;85.70
47546;DHT22;50104;52.002;4.688;2023-08-06T22:04:40;15.60;85.50
47546;DHT22;50104;52.002;4.688;2023-08-06T22:09:41;15.60;85.50
47546;DHT22;50104;52.002;4.688;2023-08-06T22:14:42;15.50;85.80
47546;DHT22;50104;52.002;4.688;2023-08-06T22:19:43;15.50;86.00
47546;DHT22;50104;52.002;4.688;2023-08-06T22:24:44;15.50;85.90
47546;DHT22;50104;52.002;4.688;2023-08-06T22:29:45;15.50;85.90
47546;DHT22;50104;52.002;4.688;2023-08-06T22:34:46;15.50;85.90
47546;DHT22;50104;52.002;4.688;2023-08-06T22:39:47;15.50;85.90
47546;DHT22;50104;52.002;4.688;2023-08-06T22:44:50;15.60;86.10
47546;DHT22;50104;52.002;4.688;2023-08-06T22:49:50;15.50;86.40
47546;DHT22;50104;52.002;4.688;2023-08-06T22:54:51;15.50;86.40
47546;DHT22;50104;52.002;4.688;2023-08-06T22:59:54;15.50;86.50
47546;DHT22;50104;52.002;4.688;2023-08-06T23:04:55;15.50;86.80
47546;DHT22;50104;52.002;4.688;2023-08-06T23:09:56;15.50;86.70
47546;DHT22;50104;52.002;4.688;2023-08-06T23:14:57;15.40;86.60
47546;DHT22;50104;52.002;4.688;2023-08-06T23:19:58;15.40;86.60
47546;DHT22;50104;52.002;4.688;2023-08-06T23:25:00;15.40;86.40
47546;DHT22;50104;52.002;4.688;2023-08-06T23:30:01;15.40;86.30
47546;DHT22;50104;52.002;4.688;2023-08-06T23:35:02;15.30;86.30
47546;DHT22;50104;52.002;4.688;2023-08-06T23:40:04;15.30;86.30
47546;DHT22;50104;52.002;4.688;2023-08-06T23:45:06;15.30;86.40
47546;DHT22;50104;52.002;4.688;2023-08-06T23:50:08;15.30;86.40
47546;DHT22;50104;52.002;4.688;2023-08-06T23:55:09;15.30;86.30
